sensor_id;sensor_type;location;lat;lon;timestamp;pressure;altitude;pressure_sealevel;temperature;humidity
24788;BME280;12883;52.662;5.196;2024-03-07T00:02:08;102560.69;;;6.91;100.00
24788;BME280;12883;52.662;5.196;2024-03-07T00:04:33;102563.03;;;6.94;100.00
24788;BME280;12883;52.662;5.196;2024-03-07T00:07:04;102525.84;;;6.67;100.00
24788;BME280;12883;52.662;5.196;2024-03-07T00:09:33;102573.16;;;6.89;100.00
24788;BME280;12883;52.662;5.196;2024-03-07T00:12:00;102572.91;;;6.92;100.00
24788;BME280;12883;52.662;5.196;2024-03-07T00:14:25;102569.53;;;6.90;100.00
24788;BME280;12883;52.662;5.196;2024-03-07T00:16:56;102572.72;;;6.84;100.00
24788;BME280;12883;52.662;5.196;2024-03-07T00:19:22;102570.66;;;6.88;100.00
24788;BME280;12883;52.662;5.196;2024-03-07T00:21:51;102575.22;;;6.86;100.00
24788;BME280;12883;52.662;5.196;2024-03-07T00:24:16;102566.47;;;6.85;100.00
24788;BME280;12883;52.662;5.196;2024-03-07T00:26:42;102574.63;;;6.82;100.00
24788;BME280;12883;52.662;5.196;2024-03-07T00:29:07;102552.75;;;6.61;100.00
24788;BME280;12883;52.662;5.196;2024-03-07T00:31:33;102570.78;;;6.86;100.00
24788;BME280;12883;52.662;5.196;2024-03-07T00:33:59;102584.22;;;6.83;100.00
24788;BME280;12883;52.662;5.196;2024-03-07T00:36:24;102572.72;;;6.84;100.00
24788;BME280;12883;52.662;5.196;2024-03-07T00:38:50;102572.56;;;6.86;100.00
24788;BME280;12883;52.662;5.196;2024-03-07T00:41:15;102567.44;;;6.84;100.00
24788;BME280;12883;52.662;5.196;2024-03-07T00:43:42;102574.06;;;6.79;100.00
24788;BME280;12883;52.662;5.196;2024-03-07T00:46:07;102570.16;;;6.73;100.00
24788;BME280;12883;52.662;5.196;2024-03-07T00:48:33;102562.94;;;6.75;100.00
24788;BME280;12883;52.662;5.196;2024-03-07T00:50:58;102557.78;;;6.64;100.00
24788;BME280;12883;52.662;5.196;2024-03-07T00:53:24;102539.50;;;6.52;100.00
24788;BME280;12883;52.662;5.196;2024-03-07T00:55:49;102563.75;;;6.66;100.00
24788;BME280;12883;52.662;5.196;2024-03-07T00:58:14;102559.16;;;6.68;100.00
24788;BME280;12883;52.662;5.196;2024-03-07T01:00:40;102554.84;;;6.67;100.00
24788;BME280;12883;52.662;5.196;2024-03-07T01:03:09;102554.28;;;6.64;100.00
24788;BME280;12883;52.662;5.196;2024-03-07T01:05:42;102548.88;;;6.65;100.00
24788;BME280;12883;52.662;5.196;2024-03-07T01:08:07;102540.06;;;6.55;100.00
24788;BME280;12883;52.662;5.196;2024-03-07T01:10:32;102553.72;;;6.60;100.00
24788;BME280;12883;52.662;5.196;2024-03-07T01:12:58;102548.88;;;6.65;100.00
24788;BME280;12883;52.662;5.196;2024-03-07T01:15:31;102553.72;;;6.60;100.00
24788;BME280;12883;52.662;5.196;2024-03-07T01:17:57;102545.41;;;6.65;100.00
24788;BME280;12883;52.662;5.196;2024-03-07T01:20:23;102550.38;;;6.58;100.00
24788;BME280;12883;52.662;5.196;2024-03-07T01:22:51;102475.25;;;6.23;100.00
24788;BME280;12883;52.662;5.196;2024-03-07T01:25:17;102547.97;;;6.55;100.00
24788;BME280;12883;52.662;5.196;2024-03-07T01:27:43;102534.56;;;6.58;100.00
24788;BME280;12883;52.662;5.196;2024-03-07T01:30:09;102532.72;;;6.59;100.00
24788;BME280;12883;52.662;5.196;2024-03-07T01:32:35;102528.31;;;6.59;100.00
24788;BME280;12883;52.662;5.196;2024-03-07T01:35:00;102530.94;;;6.59;100.00
24788;BME280;12883;52.662;5.196;2024-03-07T01:37:26;102529.53;;;6.55;100.00
24788;BME280;12883;52.662;5.196;2024-03-07T01:39:51;102533.41;;;6.51;100.00
24788;BME280;12883;52.662;5.196;2024-03-07T01:42:17;102438.91;;;5.96;100.00
24788;BME280;12883;52.662;5.196;2024-03-07T01:44:42;102522.84;;;6.51;100.00
24788;BME280;12883;52.662;5.196;2024-03-07T01:47:09;102527.75;;;6.56;100.00
24788;BME280;12883;52.662;5.196;2024-03-07T01:49:36;102529.91;;;6.51;100.00
24788;BME280;12883;52.662;5.196;2024-03-07T01:52:02;102533.97;;;6.55;100.00
24788;BME280;12883;52.662;5.196;2024-03-07T01:54:30;102533.41;;;6.51;100.00
24788;BME280;12883;52.662;5.196;2024-03-07T01:56:57;102528.94;;;6.52;100.00
24788;BME280;12883;52.662;5.196;2024-03-07T01:59:23;102493.06;;;6.30;100.00
24788;BME280;12883;52.662;5.196;2024-03-07T02:01:50;102524.53;;;6.52;100.00
24788;BME280;12883;52.662;5.196;2024-03-07T02:04:15;102521.84;;;6.43;100.00
24788;BME280;12883;52.662;5.196;2024-03-07T02:06:41;102507.50;;;6.36;100.00
24788;BME280;12883;52.662;5.196;2024-03-07T02:09:07;102513.06;;;6.42;100.00
24788;BME280;12883;52.662;5.196;2024-03-07T02:11:32;102474.94;;;6.16;100.00
24788;BME280;12883;52.662;5.196;2024-03-07T02:13:58;102502.50;;;6.33;100.00
24788;BME280;12883;52.662;5.196;2024-03-07T02:16:24;102524.47;;;6.43;100.00
24788;BME280;12883;52.662;5.196;2024-03-07T02:18:50;102500.00;;;6.31;100.00
24788;BME280;12883;52.662;5.196;2024-03-07T02:21:16;102523.09;;;6.48;100.00
24788;BME280;12883;52.662;5.196;2024-03-07T02:23:41;102530.38;;;6.56;100.00
24788;BME280;12883;52.662;5.196;2024-03-07T02:26:07;102518.41;;;6.52;100.00
24788;BME280;12883;52.662;5.196;2024-03-07T02:28:34;102494.50;;;6.44;100.00
24788;BME280;12883;52.662;5.196;2024-03-07T02:31:00;102503.31;;;6.54;100.00
24788;BME280;12883;52.662;5.196;2024-03-07T02:33:26;102489.50;;;6.41;100.00
24788;BME280;12883;52.662;5.196;2024-03-07T02:35:51;102502.00;;;6.48;100.00
24788;BME280;12883;52.662;5.196;2024-03-07T02:38:18;102452.63;;;6.20;100.00
24788;BME280;12883;52.662;5.196;2024-03-07T02:40:44;102495.19;;;6.46;100.00
24788;BME280;12883;52.662;5.196;2024-03-07T02:43:11;102493.94;;;6.40;100.00
24788;BME280;12883;52.662;5.196;2024-03-07T02:45:37;102492.25;;;6.39;100.00
24788;BME280;12883;52.662;5.196;2024-03-07T02:48:02;102495.34;;;6.44;100.00
24788;BME280;12883;52.662;5.196;2024-03-07T02:50:29;102495.34;;;6.44;100.00
24788;BME280;12883;52.662;5.196;2024-03-07T02:52:55;102487.84;;;6.40;100.00
24788;BME280;12883;52.662;5.196;2024-03-07T02:55:20;102491.75;;;6.45;100.00
24788;BME280;12883;52.662;5.196;2024-03-07T02:57:46;102480.28;;;6.35;100.00
24788;BME280;12883;52.662;5.196;2024-03-07T03:00:11;102490.06;;;6.44;100.00
24788;BME280;12883;52.662;5.196;2024-03-07T03:02:51;102493.94;;;6.40;100.00
24788;BME280;12883;52.662;5.196;2024-03-07T03:05:17;102481.03;;;6.37;100.00
24788;BME280;12883;52.662;5.196;2024-03-07T03:07:44;102486.00;;;6.40;100.00
24788;BME280;12883;52.662;5.196;2024-03-07T03:10:19;102482.94;;;6.35;100.00
24788;BME280;12883;52.662;5.196;2024-03-07T03:12:46;102483.22;;;6.32;100.00
24788;BME280;12883;52.662;5.196;2024-03-07T03:15:12;102481.53;;;6.31;100.00
24788;BME280;12883;52.662;5.196;2024-03-07T03:17:37;102478.50;;;6.36;100.00
24788;BME280;12883;52.662;5.196;2024-03-07T03:20:03;102482.50;;;6.30;100.00
24788;BME280;12883;52.662;5.196;2024-03-07T03:22:40;102485.00;;;6.32;100.00
24788;BME280;12883;52.662;5.196;2024-03-07T03:25:06;102479.59;;;6.33;100.00
24788;BME280;12883;52.662;5.196;2024-03-07T03:27:32;102480.28;;;6.35;100.00
24788;BME280;12883;52.662;5.196;2024-03-07T03:29:57;102480.75;;;6.40;100.00
24788;BME280;12883;52.662;5.196;2024-03-07T03:32:25;102473.81;;;6.39;100.00
24788;BME280;12883;52.662;5.196;2024-03-07T03:34:50;102482.56;;;6.40;100.00
24788;BME280;12883;52.662;5.196;2024-03-07T03:37:17;102457.38;;;6.26;100.00
24788;BME280;12883;52.662;5.196;2024-03-07T03:39:43;102475.91;;;6.45;100.00
24788;BME280;12883;52.662;5.196;2024-03-07T03:42:08;102468.66;;;6.38;100.00
24788;BME280;12883;52.662;5.196;2024-03-07T03:44:33;102479.53;;;6.44;100.00
24788;BME280;12883;52.662;5.196;2024-03-07T03:46:59;102481.31;;;6.44;100.00
24788;BME280;12883;52.662;5.196;2024-03-07T03:49:29;102484.81;;;6.44;100.00
24788;BME280;12883;52.662;5.196;2024-03-07T03:51:54;102474.66;;;6.40;100.00
24788;BME280;12883;52.662;5.196;2024-03-07T03:54:19;102487.72;;;6.51;100.00
24788;BME280;12883;52.662;5.196;2024-03-07T03:56:45;102444.47;;;6.23;100.00
24788;BME280;12883;52.662;5.196;2024-03-07T03:59:10;102488.44;;;6.53;100.00
24788;BME280;12883;52.662;5.196;2024-03-07T04:01:36;102492.59;;;6.55;100.00
24788;BME280;12883;52.662;5.196;2024-03-07T04:04:01;102501.50;;;6.54;100.00
24788;BME280;12883;52.662;5.196;2024-03-07T04:06:26;102500.41;;;6.57;100.00
24788;BME280;12883;52.662;5.196;2024-03-07T04:08:52;102499.25;;;6.50;100.00
24788;BME280;12883;52.662;5.196;2024-03-07T04:11:18;102499.94;;;6.52;100.00
24788;BME280;12883;52.662;5.196;2024-03-07T04:13:45;102504.00;;;6.56;100.00
24788;BME280;12883;52.662;5.196;2024-03-07T04:16:11;102501.50;;;6.54;100.00
24788;BME280;12883;52.662;5.196;2024-03-07T04:18:36;102503.31;;;6.54;100.00
24788;BME280;12883;52.662;5.196;2024-03-07T04:21:02;102505.66;;;6.57;100.00
24788;BME280;12883;52.662;5.196;2024-03-07T04:23:27;102507.47;;;6.56;100.00
24788;BME280;12883;52.662;5.196;2024-03-07T04:25:53;102449.69;;;6.14;100.00
24788;BME280;12883;52.662;5.196;2024-03-07T04:28:19;102514.38;;;6.48;100.00
24788;BME280;12883;52.662;5.196;2024-03-07T04:30:45;102511.59;;;6.49;100.00
24788;BME280;12883;52.662;5.196;2024-03-07T04:33:11;102527.41;;;6.49;100.00
24788;BME280;12883;52.662;5.196;2024-03-07T04:35:36;102525.75;;;6.48;100.00
24788;BME280;12883;52.662;5.196;2024-03-07T04:38:02;102527.00;;;6.44;100.00
24788;BME280;12883;52.662;5.196;2024-03-07T04:40:28;102523.63;;;6.42;100.00
24788;BME280;12883;52.662;5.196;2024-03-07T04:42:53;102523.91;;;6.39;100.00
24788;BME280;12883;52.662;5.196;2024-03-07T04:45:19;102526.06;;;6.34;100.00
24788;BME280;12883;52.662;5.196;2024-03-07T04:47:45;102529.00;;;6.31;100.00
24788;BME280;12883;52.662;5.196;2024-03-07T04:50:12;102533.09;;;6.24;100.00
24788;BME280;12883;52.662;5.196;2024-03-07T04:52:39;102561.97;;;6.26;100.00
24788;BME280;12883;52.662;5.196;2024-03-07T04:55:08;102536.94;;;6.20;100.00
24788;BME280;12883;52.662;5.196;2024-03-07T04:57:39;102542.03;;;6.12;100.00
24788;BME280;12883;52.662;5.196;2024-03-07T05:00:12;102553.28;;;6.14;100.00
24788;BME280;12883;52.662;5.196;2024-03-07T05:02:41;102547.56;;;6.09;100.00
24788;BME280;12883;52.662;5.196;2024-03-07T05:05:07;102553.94;;;6.07;100.00
24788;BME280;12883;52.662;5.196;2024-03-07T05:07:33;102546.19;;;5.94;100.00
24788;BME280;12883;52.662;5.196;2024-03-07T05:09:58;102551.22;;;5.97;100.00
24788;BME280;12883;52.662;5.196;2024-03-07T05:12:23;102551.84;;;5.90;100.00
24788;BME280;12883;52.662;5.196;2024-03-07T05:14:49;102555.44;;;5.89;100.00
24788;BME280;12883;52.662;5.196;2024-03-07T05:17:14;102543.22;;;5.88;100.00
24788;BME280;12883;52.662;5.196;2024-03-07T05:19:39;102548.88;;;5.83;100.00
24788;BME280;12883;52.662;5.196;2024-03-07T05:22:05;102553.88;;;5.86;100.00
24788;BME280;12883;52.662;5.196;2024-03-07T05:24:31;102556.06;;;5.70;100.00
24788;BME280;12883;52.662;5.196;2024-03-07T05:26:58;102557.97;;;5.79;100.00
24788;BME280;12883;52.662;5.196;2024-03-07T05:29:24;102558.31;;;5.75;100.00
24788;BME280;12883;52.662;5.196;2024-03-07T05:31:49;102559.19;;;5.75;100.00
24788;BME280;12883;52.662;5.196;2024-03-07T05:34:15;102561.06;;;5.73;100.00
24788;BME280;12883;52.662;5.196;2024-03-07T05:36:47;102555.00;;;5.73;100.00
24788;BME280;12883;52.662;5.196;2024-03-07T05:39:13;102558.59;;;5.72;100.00
24788;BME280;12883;52.662;5.196;2024-03-07T05:41:39;102568.88;;;5.75;100.00
24788;BME280;12883;52.662;5.196;2024-03-07T05:44:05;102568.28;;;5.71;100.00
24788;BME280;12883;52.662;5.196;2024-03-07T05:46:43;102564.94;;;5.69;100.00
24788;BME280;12883;52.662;5.196;2024-03-07T05:49:14;102548.25;;;5.48;100.00
24788;BME280;12883;52.662;5.196;2024-03-07T05:51:40;102571.56;;;5.64;100.00
24788;BME280;12883;52.662;5.196;2024-03-07T05:54:13;102567.75;;;5.57;100.00
24788;BME280;12883;52.662;5.196;2024-03-07T05:56:40;102531.88;;;5.34;100.00
24788;BME280;12883;52.662;5.196;2024-03-07T05:59:08;102573.94;;;5.56;100.00
24788;BME280;12883;52.662;5.196;2024-03-07T06:01:37;102543.25;;;5.34;100.00
24788;BME280;12883;52.662;5.196;2024-03-07T06:04:05;102577.53;;;5.55;100.00
24788;BME280;12883;52.662;5.196;2024-03-07T06:06:32;102570.28;;;5.47;100.00
24788;BME280;12883;52.662;5.196;2024-03-07T06:09:08;102569.31;;;5.48;100.00
24788;BME280;12883;52.662;5.196;2024-03-07T06:11:37;102567.66;;;5.47;100.00
24788;BME280;12883;52.662;5.196;2024-03-07T06:14:03;102555.47;;;5.35;100.00
24788;BME280;12883;52.662;5.196;2024-03-07T06:16:30;102583.94;;;5.41;100.00
24788;BME280;12883;52.662;5.196;2024-03-07T06:18:59;102578.88;;;5.38;100.00
24788;BME280;12883;52.662;5.196;2024-03-07T06:21:25;102578.78;;;5.40;100.00
24788;BME280;12883;52.662;5.196;2024-03-07T06:23:50;102578.28;;;5.35;100.00
24788;BME280;12883;52.662;5.196;2024-03-07T06:26:28;102586.56;;;5.41;100.00
24788;BME280;12883;52.662;5.196;2024-03-07T06:29:03;102445.31;;;4.55;100.00
24788;BME280;12883;52.662;5.196;2024-03-07T06:31:30;102583.44;;;5.36;100.00
24788;BME280;12883;52.662;5.196;2024-03-07T06:33:56;102558.84;;;5.15;100.00
24788;BME280;12883;52.662;5.196;2024-03-07T06:36:22;102583.44;;;5.36;100.00
24788;BME280;12883;52.662;5.196;2024-03-07T06:38:47;102588.97;;;5.33;100.00
24788;BME280;12883;52.662;5.196;2024-03-07T06:41:13;102587.88;;;5.36;100.00
24788;BME280;12883;52.662;5.196;2024-03-07T06:43:39;102590.16;;;5.40;100.00
24788;BME280;12883;52.662;5.196;2024-03-07T06:46:04;102592.56;;;5.32;100.00
24788;BME280;12883;52.662;5.196;2024-03-07T06:48:31;102591.13;;;5.28;100.00
24788;BME280;12883;52.662;5.196;2024-03-07T06:50:57;102590.63;;;5.34;100.00
24788;BME280;12883;52.662;5.196;2024-03-07T06:53:22;102592.19;;;5.37;100.00
24788;BME280;12883;52.662;5.196;2024-03-07T06:55:51;102586.56;;;5.30;100.00
24788;BME280;12883;52.662;5.196;2024-03-07T06:58:19;102596.59;;;5.36;100.00
24788;BME280;12883;52.662;5.196;2024-03-07T07:00:45;102599.50;;;5.33;100.00
24788;BME280;12883;52.662;5.196;2024-03-07T07:03:11;102599.34;;;5.35;100.00
24788;BME280;12883;52.662;5.196;2024-03-07T07:05:39;102595.63;;;5.37;100.00
24788;BME280;12883;52.662;5.196;2024-03-07T07:08:06;102516.41;;;4.87;100.00
24788;BME280;12883;52.662;5.196;2024-03-07T07:10:32;102603.44;;;5.39;100.00
24788;BME280;12883;52.662;5.196;2024-03-07T07:12:57;102563.03;;;5.18;100.00
24788;BME280;12883;52.662;5.196;2024-03-07T07:15:23;102594.94;;;5.46;100.00
24788;BME280;12883;52.662;5.196;2024-03-07T07:17:49;102558.34;;;5.21;100.00
24788;BME280;12883;52.662;5.196;2024-03-07T07:20:16;102604.72;;;5.44;100.00
24788;BME280;12883;52.662;5.196;2024-03-07T07:22:43;102596.13;;;5.42;100.00
24788;BME280;12883;52.662;5.196;2024-03-07T07:25:09;102603.53;;;5.48;100.00
24788;BME280;12883;52.662;5.196;2024-03-07T07:27:49;102614.66;;;5.52;100.00
24788;BME280;12883;52.662;5.196;2024-03-07T07:30:15;102606.63;;;5.53;100.00
24788;BME280;12883;52.662;5.196;2024-03-07T07:32:42;102578.66;;;5.30;100.00
24788;BME280;12883;52.662;5.196;2024-03-07T07:35:09;102620.13;;;5.60;100.00
24788;BME280;12883;52.662;5.196;2024-03-07T07:37:48;102610.09;;;5.65;100.00
24788;BME280;12883;52.662;5.196;2024-03-07T07:40:15;102597.72;;;5.65;100.00
24788;BME280;12883;52.662;5.196;2024-03-07T07:42:44;102589.16;;;5.52;100.00
24788;BME280;12883;52.662;5.196;2024-03-07T07:45:13;102606.81;;;5.72;100.00
24788;BME280;12883;52.662;5.196;2024-03-07T07:50:07;102582.00;;;5.43;100.00
24788;BME280;12883;52.662;5.196;2024-03-07T07:52:40;102629.31;;;5.76;100.00
24788;BME280;12883;52.662;5.196;2024-03-07T07:55:06;102630.75;;;5.80;100.00
24788;BME280;12883;52.662;5.196;2024-03-07T07:57:40;102632.19;;;5.84;100.00
24788;BME280;12883;52.662;5.196;2024-03-07T08:00:06;102632.31;;;5.83;100.00
24788;BME280;12883;52.662;5.196;2024-03-07T08:02:34;102640.56;;;5.89;100.00
24788;BME280;12883;52.662;5.196;2024-03-07T08:04:59;102632.28;;;5.94;100.00
24788;BME280;12883;52.662;5.196;2024-03-07T08:07:26;102628.81;;;5.93;100.00
24788;BME280;12883;52.662;5.196;2024-03-07T08:09:51;102637.44;;;5.95;100.00
24788;BME280;12883;52.662;5.196;2024-03-07T08:12:16;102639.22;;;5.95;100.00
24788;BME280;12883;52.662;5.196;2024-03-07T08:14:42;102636.38;;;5.98;100.00
24788;BME280;12883;52.662;5.196;2024-03-07T08:17:09;102636.22;;;5.99;100.00
24788;BME280;12883;52.662;5.196;2024-03-07T08:19:36;102635.03;;;6.03;100.00
24788;BME280;12883;52.662;5.196;2024-03-07T08:22:01;102639.31;;;6.04;100.00
24788;BME280;12883;52.662;5.196;2024-03-07T08:24:27;102642.81;;;6.05;100.00
24788;BME280;12883;52.662;5.196;2024-03-07T08:26:53;102651.41;;;6.07;100.00
24788;BME280;12883;52.662;5.196;2024-03-07T08:29:18;102650.44;;;6.08;100.00
24788;BME280;12883;52.662;5.196;2024-03-07T08:31:44;102649.09;;;6.13;100.00
24788;BME280;12883;52.662;5.196;2024-03-07T08:34:09;102653.28;;;6.16;100.00
24788;BME280;12883;52.662;5.196;2024-03-07T08:36:35;102642.44;;;6.09;100.00
24788;BME280;12883;52.662;5.196;2024-03-07T08:39:01;102651.44;;;6.27;100.00
24788;BME280;12883;52.662;5.196;2024-03-07T08:41:28;102652.59;;;6.34;100.00
24788;BME280;12883;52.662;5.196;2024-03-07T08:43:56;102628.03;;;6.13;100.00
24788;BME280;12883;52.662;5.196;2024-03-07T08:46:22;102655.75;;;6.28;100.00
24788;BME280;12883;52.662;5.196;2024-03-07T08:48:47;102647.72;;;6.30;100.00
24788;BME280;12883;52.662;5.196;2024-03-07T08:51:14;102622.53;;;6.16;100.00
24788;BME280;12883;52.662;5.196;2024-03-07T08:53:40;102657.38;;;6.40;100.00
24788;BME280;12883;52.662;5.196;2024-03-07T08:56:06;102664.09;;;6.44;100.00
24788;BME280;12883;52.662;5.196;2024-03-07T08:58:32;102665.75;;;6.45;100.00
24788;BME280;12883;52.662;5.196;2024-03-07T09:00:57;102659.25;;;6.49;100.00
24788;BME280;12883;52.662;5.196;2024-03-07T09:03:24;102665.69;;;6.56;100.00
24788;BME280;12883;52.662;5.196;2024-03-07T09:05:51;102654.94;;;6.48;100.00
24788;BME280;12883;52.662;5.196;2024-03-07T09:08:17;102663.69;;;6.49;100.00
24788;BME280;12883;52.662;5.196;2024-03-07T09:10:43;102651.41;;;6.59;100.00
24788;BME280;12883;52.662;5.196;2024-03-07T09:13:09;102657.84;;;6.66;100.00
24788;BME280;12883;52.662;5.196;2024-03-07T09:15:34;102596.50;;;6.43;100.00
24788;BME280;12883;52.662;5.196;2024-03-07T09:18:02;102653.66;;;6.63;100.00
24788;BME280;12883;52.662;5.196;2024-03-07T09:20:28;102646.25;;;6.78;100.00
24788;BME280;12883;52.662;5.196;2024-03-07T09:22:54;102647.13;;;6.78;100.00
24788;BME280;12883;52.662;5.196;2024-03-07T09:25:19;102648.25;;;6.85;100.00
24788;BME280;12883;52.662;5.196;2024-03-07T09:27:45;102649.75;;;6.78;100.00
24788;BME280;12883;52.662;5.196;2024-03-07T09:30:11;102682.09;;;6.80;100.00
24788;BME280;12883;52.662;5.196;2024-03-07T09:32:49;102651.88;;;6.84;100.00
24788;BME280;12883;52.662;5.196;2024-03-07T09:35:14;102644.66;;;6.86;100.00
24788;BME280;12883;52.662;5.196;2024-03-07T09:37:42;102647.59;;;6.93;100.00
24788;BME280;12883;52.662;5.196;2024-03-07T09:40:08;102637.19;;;6.91;100.00
24788;BME280;12883;52.662;5.196;2024-03-07T09:42:41;102649.03;;;6.97;100.00
24788;BME280;12883;52.662;5.196;2024-03-07T09:45:07;102645.53;;;6.96;100.00
24788;BME280;12883;52.662;5.196;2024-03-07T09:47:33;102649.53;;;6.91;100.00
24788;BME280;12883;52.662;5.196;2024-03-07T09:49:59;102651.09;;;6.93;100.00
24788;BME280;12883;52.662;5.196;2024-03-07T09:52:25;102622.84;;;6.84;100.00
24788;BME280;12883;52.662;5.196;2024-03-07T09:54:52;102646.69;;;7.03;100.00
24788;BME280;12883;52.662;5.196;2024-03-07T09:57:18;102648.91;;;7.08;100.00
24788;BME280;12883;52.662;5.196;2024-03-07T09:59:45;102641.69;;;7.00;100.00
24788;BME280;12883;52.662;5.196;2024-03-07T10:02:13;102647.69;;;7.12;100.00
24788;BME280;12883;52.662;5.196;2024-03-07T10:04:44;102635.59;;;7.09;100.00
24788;BME280;12883;52.662;5.196;2024-03-07T10:07:14;102633.41;;;7.14;100.00
24788;BME280;12883;52.662;5.196;2024-03-07T10:09:40;102646.94;;;7.30;100.00
24788;BME280;12883;52.662;5.196;2024-03-07T10:12:07;102641.41;;;7.33;100.00
24788;BME280;12883;52.662;5.196;2024-03-07T10:14:47;102640.69;;;7.31;100.00
24788;BME280;12883;52.662;5.196;2024-03-07T10:17:14;102632.69;;;7.42;100.00
24788;BME280;12883;52.662;5.196;2024-03-07T10:19:40;102624.84;;;7.31;100.00
24788;BME280;12883;52.662;5.196;2024-03-07T10:22:06;102623.34;;;7.38;100.00
24788;BME280;12883;52.662;5.196;2024-03-07T10:24:31;102630.69;;;7.35;100.00
24788;BME280;12883;52.662;5.196;2024-03-07T10:26:58;102632.84;;;7.50;100.00
24788;BME280;12883;52.662;5.196;2024-03-07T10:29:23;102630.19;;;7.50;100.00
24788;BME280;12883;52.662;5.196;2024-03-07T10:31:50;102629.09;;;7.53;100.00
24788;BME280;12883;52.662;5.196;2024-03-07T10:34:15;102608.63;;;7.45;100.00
24788;BME280;12883;52.662;5.196;2024-03-07T10:36:45;102619.66;;;7.60;100.00
24788;BME280;12883;52.662;5.196;2024-03-07T10:39:10;102606.03;;;7.64;100.00
24788;BME280;12883;52.662;5.196;2024-03-07T10:41:49;102610.63;;;7.62;100.00
24788;BME280;12883;52.662;5.196;2024-03-07T10:44:24;102620.91;;;7.65;100.00
24788;BME280;12883;52.662;5.196;2024-03-07T10:46:55;102613.00;;;7.65;100.00
24788;BME280;12883;52.662;5.196;2024-03-07T10:49:21;102581.00;;;7.49;100.00
24788;BME280;12883;52.662;5.196;2024-03-07T10:52:13;102617.75;;;7.81;100.00
24788;BME280;12883;52.662;5.196;2024-03-07T10:54:53;102614.56;;;7.77;100.00
24788;BME280;12883;52.662;5.196;2024-03-07T10:59:57;102598.81;;;7.76;100.00
24788;BME280;12883;52.662;5.196;2024-03-07T11:02:44;102606.22;;;7.82;100.00
24788;BME280;12883;52.662;5.196;2024-03-07T11:05:12;102606.91;;;7.93;100.00
24788;BME280;12883;52.662;5.196;2024-03-07T11:07:38;102608.31;;;7.88;100.00
24788;BME280;12883;52.662;5.196;2024-03-07T11:10:05;102606.91;;;7.93;100.00
24788;BME280;12883;52.662;5.196;2024-03-07T11:12:38;102619.16;;;8.04;100.00
24788;BME280;12883;52.662;5.196;2024-03-07T11:15:08;102610.28;;;7.95;100.00
24788;BME280;12883;52.662;5.196;2024-03-07T11:17:42;102591.47;;;7.98;100.00
24788;BME280;12883;52.662;5.196;2024-03-07T11:20:33;102603.84;;;7.98;100.00
24788;BME280;12883;52.662;5.196;2024-03-07T11:22:59;102617.78;;;8.09;100.00
24788;BME280;12883;52.662;5.196;2024-03-07T11:25:26;102594.81;;;8.10;100.00
24788;BME280;12883;52.662;5.196;2024-03-07T11:27:59;102594.13;;;8.17;100.00
24788;BME280;12883;52.662;5.196;2024-03-07T11:30:25;102591.50;;;8.17;100.00
24788;BME280;12883;52.662;5.196;2024-03-07T11:32:52;102581.34;;;8.22;100.00
24788;BME280;12883;52.662;5.196;2024-03-07T11:35:31;102577.72;;;8.14;100.00
24788;BME280;12883;52.662;5.196;2024-03-07T11:37:58;102581.50;;;8.21;100.00
24788;BME280;12883;52.662;5.196;2024-03-07T11:42:52;102528.47;;;8.03;100.00
24788;BME280;12883;52.662;5.196;2024-03-07T11:45:19;102560.91;;;8.24;100.00
24788;BME280;12883;52.662;5.196;2024-03-07T11:47:52;102569.38;;;8.37;100.00
24788;BME280;12883;52.662;5.196;2024-03-07T11:50:35;102562.25;;;8.28;100.00
24788;BME280;12883;52.662;5.196;2024-03-07T11:53:02;102562.00;;;8.31;100.00
24788;BME280;12883;52.662;5.196;2024-03-07T11:55:30;102560.34;;;8.30;100.00
24788;BME280;12883;52.662;5.196;2024-03-07T11:58:09;102552.66;;;8.18;100.00
24788;BME280;12883;52.662;5.196;2024-03-07T12:00:41;102568.53;;;8.27;100.00
24788;BME280;12883;52.662;5.196;2024-03-07T12:03:16;102572.84;;;8.28;100.00
24788;BME280;12883;52.662;5.196;2024-03-07T12:05:49;102558.53;;;8.21;100.00
24788;BME280;12883;52.662;5.196;2024-03-07T12:08:16;102566.88;;;8.26;100.00
24788;BME280;12883;52.662;5.196;2024-03-07T12:10:43;102548.75;;;8.12;100.00
24788;BME280;12883;52.662;5.196;2024-03-07T12:13:12;102553.50;;;8.18;100.00
24788;BME280;12883;52.662;5.196;2024-03-07T12:15:41;102557.84;;;8.19;100.00
24788;BME280;12883;52.662;5.196;2024-03-07T12:18:06;102551.13;;;8.15;100.00
24788;BME280;12883;52.662;5.196;2024-03-07T12:20:42;102541.69;;;8.03;100.00
24788;BME280;12883;52.662;5.196;2024-03-07T12:23:12;102541.81;;;8.11;100.00
24788;BME280;12883;52.662;5.196;2024-03-07T12:25:38;102540.00;;;8.21;100.00
24788;BME280;12883;52.662;5.196;2024-03-07T12:28:14;102529.97;;;8.15;100.00
24788;BME280;12883;52.662;5.196;2024-03-07T12:33:11;102505.94;;;7.90;100.00
24788;BME280;12883;52.662;5.196;2024-03-07T12:35:42;102535.13;;;8.07;100.00
24788;BME280;12883;52.662;5.196;2024-03-07T12:38:09;102535.28;;;8.25;100.00
24788;BME280;12883;52.662;5.196;2024-03-07T12:40:40;102513.41;;;8.13;100.00
24788;BME280;12883;52.662;5.196;2024-03-07T12:43:32;102508.69;;;8.17;100.00
24788;BME280;12883;52.662;5.196;2024-03-07T12:45:58;102515.41;;;8.21;100.00
24788;BME280;12883;52.662;5.196;2024-03-07T12:48:24;102511.75;;;8.12;100.00
24788;BME280;12883;52.662;5.196;2024-03-07T12:50:51;102506.47;;;8.12;100.00
24788;BME280;12883;52.662;5.196;2024-03-07T12:53:22;102484.50;;;8.02;100.00
24788;BME280;12883;52.662;5.196;2024-03-07T12:55:51;102493.50;;;8.19;100.00
24788;BME280;12883;52.662;5.196;2024-03-07T12:58:17;102498.97;;;8.08;100.00
24788;BME280;12883;52.662;5.196;2024-03-07T13:00:44;102487.97;;;8.12;100.00
24788;BME280;12883;52.662;5.196;2024-03-07T13:03:10;102514.53;;;8.01;100.00